createdAt,value
2023-04-02T00:00:05.359Z,98709.69
2023-04-02T00:00:19.181Z,98710.75
2023-04-02T00:00:31.195Z,98720.50
2023-04-02T00:01:04.163Z,98713.22
2023-04-02T00:01:23.525Z,98705.38
2023-04-02T00:01:38.821Z,98710.56
2023-04-02T00:01:51.629Z,98714.78
2023-04-02T00:02:33.198Z,98711.13
2023-04-02T00:02:54.460Z,98713.94
2023-04-02T00:03:10.457Z,98713.06
2023-04-02T00:03:22.591Z,98712.94
2023-04-02T00:03:42.468Z,98707.19
2023-04-02T00:03:59.541Z,98714.25
2023-04-02T00:04:22.215Z,98707.19
2023-04-02T00:04:38.056Z,98710.56
2023-04-02T00:05:34.424Z,98717.16
2023-04-02T00:05:52.575Z,98711.13
2023-04-02T00:06:30.609Z,98708.03
2023-04-02T00:06:45.998Z,98709.19
2023-04-02T00:07:21.363Z,98717.38
2023-04-02T00:07:33.756Z,98714.91
2023-04-02T00:07:51.094Z,98709.78
2023-04-02T00:08:10.219Z,98716.66
2023-04-02T00:08:40.983Z,98716.09
2023-04-02T00:08:56.241Z,98711.84
2023-04-02T00:09:10.942Z,98718.00
2023-04-02T00:09:36.390Z,98714.75
2023-04-02T00:09:48.355Z,98710.50
2023-04-02T00:10:00.429Z,98713.03
2023-04-02T00:10:39.838Z,98715.88
2023-04-02T00:10:55.693Z,98719.56
2023-04-02T00:11:09.297Z,98707.50
2023-04-02T00:11:33.373Z,98716.34
2023-04-02T00:11:49.235Z,98722.25
2023-04-02T00:12:15.835Z,98714.44
2023-04-02T00:12:27.837Z,98716.28
2023-04-02T00:12:39.901Z,98718.09
2023-04-02T00:13:03.682Z,98721.72
2023-04-02T00:13:18.221Z,98727.44
2023-04-02T00:13:46.938Z,98722.16
2023-04-02T00:14:04.251Z,98711.06
2023-04-02T00:14:36.262Z,98714.75
2023-04-02T00:14:52.284Z,98714.69
2023-04-02T00:15:04.408Z,98717.47
2023-04-02T00:15:16.791Z,98717.47
2023-04-02T00:15:29.405Z,98709.69
2023-04-02T00:15:44.411Z,98712.41
2023-04-02T00:15:58.342Z,98719.13
2023-04-02T00:16:19.783Z,98715.66
2023-04-02T00:16:32.415Z,98726.13
2023-04-02T00:16:45.531Z,98718.25
2023-04-02T00:17:00.838Z,98725.34
2023-04-02T00:17:15.380Z,98724.31
2023-04-02T00:17:27.362Z,98720.91
2023-04-02T00:17:41.925Z,98719.34
2023-04-02T00:17:54.165Z,98716.03
2023-04-02T00:18:07.071Z,98726.38
2023-04-02T00:18:21.647Z,98716.84
2023-04-02T00:18:37.013Z,98719.28
2023-04-02T00:18:53.927Z,98711.38
2023-04-02T00:19:15.860Z,98706.38
2023-04-02T00:19:37.413Z,98715.81
2023-04-02T00:20:02.337Z,98716.53
2023-04-02T00:20:16.185Z,98724.13
2023-04-02T00:20:30.418Z,98720.59
2023-04-02T00:20:46.629Z,98721.72
2023-04-02T00:21:19.306Z,98716.84
2023-04-02T00:21:34.785Z,98722.13
2023-04-02T00:21:47.612Z,98720.38
2023-04-02T00:22:02.018Z,98726.28
2023-04-02T00:22:18.558Z,98722.91
2023-04-02T00:22:32.358Z,98723.75
2023-04-02T00:22:45.775Z,98726.38
2023-04-02T00:22:57.789Z,98720.41
2023-04-02T00:23:14.615Z,98723.00
2023-04-02T00:23:26.682Z,98717.00
2023-04-02T00:23:44.222Z,98732.16
2023-04-02T00:23:59.878Z,98714.69
2023-04-02T00:24:17.413Z,98726.03
2023-04-02T00:24:29.338Z,98722.41
2023-04-02T00:24:41.903Z,98727.44
2023-04-02T00:24:56.287Z,98723.81
2023-04-02T00:25:13.740Z,98724.03
2023-04-02T00:25:28.403Z,98718.78
2023-04-02T00:25:45.607Z,98724.06
2023-04-02T00:25:57.774Z,98710.22
2023-04-02T00:26:32.052Z,98726.59
2023-04-02T00:26:46.377Z,98721.44
2023-04-02T00:26:58.318Z,98715.22
2023-04-02T00:27:14.642Z,98719.41
2023-04-02T00:27:26.569Z,98731.53
2023-04-02T00:27:38.935Z,98728.75
2023-04-02T00:27:50.855Z,98720.97
2023-04-02T00:28:03.749Z,98723.56
2023-04-02T00:28:22.781Z,98733.00
2023-04-02T00:28:35.574Z,98710.59
2023-04-02T00:28:47.848Z,98718.38
2023-04-02T00:29:01.765Z,98713.34
2023-04-02T00:29:15.805Z,98719.09
2023-04-02T00:29:27.736Z,98728.38
2023-04-02T00:29:51.076Z,98730.91
2023-04-02T00:30:04.257Z,98729.16
2023-04-02T00:30:16.344Z,98724.88
2023-04-02T00:30:28.487Z,98723.97
2023-04-02T00:30:51.431Z,98727.59
2023-04-02T00:31:03.811Z,98718.91
2023-04-02T00:31:18.625Z,98723.06
2023-04-02T00:31:31.551Z,98728.50
2023-04-02T00:31:54.255Z,98724.22
2023-04-02T00:32:06.625Z,98724.22
2023-04-02T00:32:31.783Z,98729.09
2023-04-02T00:32:43.904Z,98728.84
2023-04-02T00:32:56.136Z,98726.47
2023-04-02T00:33:16.142Z,98726.56
2023-04-02T00:33:31.409Z,98729.41
2023-04-02T00:33:44.018Z,98718.22
2023-04-02T00:33:57.136Z,98728.38
2023-04-02T00:34:22.783Z,98729.22
2023-04-02T00:34:37.866Z,98722.69
2023-04-02T00:34:50.651Z,98728.97
2023-04-02T00:35:04.700Z,98721.19
2023-04-02T00:35:26.410Z,98720.91
2023-04-02T00:35:39.294Z,98717.88
2023-04-02T00:35:53.326Z,98725.53
2023-04-02T00:36:08.021Z,98721.28
2023-04-02T00:36:22.109Z,98729.09
2023-04-02T00:36:35.492Z,98727.41
2023-04-02T00:36:49.250Z,98728.25
2023-04-02T00:37:01.786Z,98734.88
2023-04-02T00:37:23.841Z,98742.00
2023-04-02T00:37:39.432Z,98734.03
2023-04-02T00:37:51.708Z,98730.25
2023-04-02T00:38:03.871Z,98738.91
2023-04-02T00:38:30.796Z,98724.38
2023-04-02T00:38:44.281Z,98731.44
2023-04-02T00:38:59.529Z,98729.81
2023-04-02T00:39:18.900Z,98728.25
2023-04-02T00:39:34.898Z,98729.81
2023-04-02T00:39:47.646Z,98726.56
2023-04-02T00:40:07.187Z,98728.38
2023-04-02T00:40:30.681Z,98731.81
2023-04-02T00:40:42.673Z,98733.38
2023-04-02T00:40:58.142Z,98729.06
2023-04-02T00:41:19.155Z,98732.34
2023-04-02T00:41:49.443Z,98739.22
2023-04-02T00:42:05.550Z,98729.56
2023-04-02T00:42:18.442Z,98729.16
2023-04-02T00:42:31.440Z,98738.81
2023-04-02T00:42:44.709Z,98729.06
2023-04-02T00:42:59.942Z,98736.44
2023-04-02T00:43:16.758Z,98729.44
2023-04-02T00:43:32.184Z,98734.88
2023-04-02T00:43:46.809Z,98731.75
2023-04-02T00:44:00.879Z,98728.13
2023-04-02T00:44:15.871Z,98730.19
2023-04-02T00:44:30.365Z,98728.50
2023-04-02T00:44:45.728Z,98731.88
2023-04-02T00:44:58.977Z,98731.75
2023-04-02T00:45:22.652Z,98759.50
2023-04-02T00:45:38.843Z,98737.19
2023-04-02T00:45:56.612Z,98725.72
2023-04-02T00:46:15.145Z,98732.66
2023-04-02T00:46:34.506Z,98726.56
2023-04-02T00:46:49.693Z,98737.66
2023-04-02T00:47:17.130Z,98736.38
2023-04-02T00:47:47.258Z,98738.34
2023-04-02T00:48:13.656Z,98739.00
2023-04-02T00:48:44.400Z,98743.94
2023-04-02T00:48:56.247Z,98729.16
2023-04-02T00:49:18.038Z,98735.13
2023-04-02T00:49:36.796Z,98746.59
2023-04-02T00:49:54.607Z,98726.47
2023-04-02T00:50:20.528Z,98743.69
2023-04-02T00:50:40.999Z,98726.56
2023-04-02T00:50:54.467Z,98738.38
2023-04-02T00:51:29.205Z,98741.22
2023-04-02T00:51:48.002Z,98743.78
2023-04-02T00:52:06.628Z,98738.63
2023-04-02T00:52:25.402Z,98734.28
2023-04-02T00:52:39.006Z,98744.06
2023-04-02T00:52:54.408Z,98741.72
2023-04-02T00:53:25.885Z,98736.38
2023-04-02T00:53:39.069Z,98735.50
2023-04-02T00:53:54.568Z,98737.44
2023-04-02T00:54:10.230Z,98738.34
2023-04-02T00:54:25.667Z,98744.44
2023-04-02T00:54:52.862Z,98740.44
2023-04-02T00:55:32.124Z,98741.66
2023-04-02T00:55:44.581Z,98741.75
2023-04-02T00:55:58.923Z,98735.44
2023-04-02T00:56:25.514Z,98743.16
2023-04-02T00:56:42.336Z,98736.22
2023-04-02T00:56:57.104Z,98752.44
2023-04-02T00:57:17.837Z,98739.03
2023-04-02T00:57:30.927Z,98737.97
2023-04-02T00:57:45.008Z,98740.56
2023-04-02T00:57:59.328Z,98739.53
2023-04-02T00:58:27.629Z,98742.59
2023-04-02T00:58:40.483Z,98738.50
2023-04-02T00:58:58.382Z,98737.53
2023-04-02T00:59:26.322Z,98745.91
2023-04-02T00:59:51.029Z,98742.38
2023-04-02T01:00:07.867Z,98748.50
2023-04-02T01:00:33.288Z,98743.75
2023-04-02T01:00:54.514Z,98737.72
2023-04-02T01:01:19.864Z,98740.53
2023-04-02T01:01:37.416Z,98747.25
2023-04-02T01:01:54.368Z,98745.50
2023-04-02T01:02:38.406Z,98740.97
2023-04-02T01:03:13.112Z,98744.91
2023-04-02T01:03:34.353Z,98743.09
2023-04-02T01:04:34.434Z,98742.44
2023-04-02T01:04:55.677Z,98744.25
2023-04-02T01:05:16.669Z,98747.72
2023-04-02T01:05:34.754Z,98738.50
2023-04-02T01:05:55.790Z,98743.56
2023-04-02T01:06:11.378Z,98740.78
2023-04-02T01:06:29.543Z,98742.69
2023-04-02T01:06:43.873Z,98753.03
2023-04-02T01:06:56.593Z,98755.75
2023-04-02T01:07:12.204Z,98752.97
2023-04-02T01:07:37.328Z,98749.91
2023-04-02T01:08:16.922Z,98744.72
2023-04-02T01:08:43.775Z,98751.53
2023-04-02T01:09:14.709Z,98751.53
2023-04-02T01:09:33.511Z,98750.94
2023-04-02T01:10:00.422Z,98750.06
2023-04-02T01:10:45.870Z,98751.88
2023-04-02T01:11:03.579Z,98747.19
2023-04-02T01:11:36.984Z,98754.91
2023-04-02T01:11:51.631Z,98754.53
2023-04-02T01:12:22.020Z,98750.06
2023-04-02T01:12:55.090Z,98751.47
2023-04-02T01:13:17.785Z,98753.03
2023-04-02T01:13:39.622Z,98752.44
2023-04-02T01:14:30.337Z,98759.75
2023-04-02T01:14:45.005Z,98753.75
2023-04-02T01:15:18.245Z,98758.72
2023-04-02T01:15:42.678Z,98752.44
2023-04-02T01:16:08.570Z,98752.19
2023-04-02T01:16:33.071Z,98752.25
2023-04-02T01:17:01.625Z,98755.75
2023-04-02T01:17:43.240Z,98758.34
2023-04-02T01:18:19.739Z,98755.09
2023-04-02T01:18:53.603Z,98749.78
2023-04-02T01:19:43.672Z,98751.09
2023-04-02T01:20:10.109Z,98751.78
2023-04-02T01:20:49.446Z,98754.97
2023-04-02T01:21:07.246Z,98756.81
2023-04-02T01:21:31.141Z,98765.09
2023-04-02T01:22:00.559Z,98756.81
2023-04-02T01:22:42.563Z,98761.91
2023-04-02T01:23:00.627Z,98762.00
2023-04-02T01:23:28.230Z,98760.19
2023-04-02T01:24:13.606Z,98763.53
2023-04-02T01:24:31.547Z,98763.03
2023-04-02T01:24:44.111Z,98766.56
2023-04-02T01:24:58.336Z,98754.25
2023-04-02T01:25:17.702Z,98758.63
2023-04-02T01:25:42.300Z,98756.03
2023-04-02T01:26:11.772Z,98757.91
2023-04-02T01:26:41.661Z,98758.09
2023-04-02T01:26:58.597Z,98763.28
2023-04-02T01:27:24.738Z,98757.94
2023-04-02T01:27:47.501Z,98757.94
2023-04-02T01:28:09.509Z,98765.88
2023-04-02T01:28:36.211Z,98760.44
2023-04-02T01:29:01.818Z,98760.19
2023-04-02T01:29:33.761Z,98761.84
2023-04-02T01:29:57.591Z,98760.22
2023-04-02T01:30:12.402Z,98756.38
2023-04-02T01:30:24.938Z,98761.19
2023-04-02T01:30:37.355Z,98768.84
2023-04-02T01:30:55.896Z,98760.28
2023-04-02T01:31:09.926Z,98763.03
2023-04-02T01:31:23.106Z,98764.84
2023-04-02T01:31:36.851Z,98764.94
2023-04-02T01:31:52.135Z,98763.13
2023-04-02T01:32:13.033Z,98764.19
2023-04-02T01:32:28.984Z,98763.28
2023-04-02T01:32:42.455Z,98771.69
2023-04-02T01:32:57.554Z,98761.31
2023-04-02T01:33:10.534Z,98764.69
2023-04-02T01:33:27.705Z,98760.38
2023-04-02T01:33:41.460Z,98757.69
2023-04-02T01:33:53.704Z,98758.56
2023-04-02T01:34:12.310Z,98761.19
2023-04-02T01:34:27.305Z,98768.94
2023-04-02T01:34:39.747Z,98758.09
2023-04-02T01:34:52.561Z,98763.28
2023-04-02T01:35:05.017Z,98763.28
2023-04-02T01:35:17.681Z,98759.75
2023-04-02T01:35:36.030Z,98763.28
2023-04-02T01:35:59.750Z,98766.66
2023-04-02T01:36:18.948Z,98763.03
2023-04-02T01:36:41.068Z,98763.41
2023-04-02T01:37:14.579Z,98760.19
2023-04-02T01:37:36.705Z,98763.53
2023-04-02T01:38:21.222Z,98763.53
2023-04-02T01:38:43.852Z,98764.06
2023-04-02T01:39:35.691Z,98764.44
2023-04-02T01:40:25.669Z,98768.59
2023-04-02T01:41:08.214Z,98762.63
2023-04-02T01:41:46.356Z,98769.09
2023-04-02T01:42:03.300Z,98773.19
2023-04-02T01:42:46.689Z,98769.25
2023-04-02T01:43:08.411Z,98771.84
2023-04-02T01:43:45.584Z,98780.47
2023-04-02T01:44:13.861Z,98773.47
2023-04-02T01:44:49.869Z,98774.03
2023-04-02T01:45:22.529Z,98774.94
2023-04-02T01:45:35.227Z,98776.88
2023-04-02T01:45:47.931Z,98771.59
2023-04-02T01:46:07.916Z,98773.25
2023-04-02T01:46:29.687Z,98777.53
2023-04-02T01:46:43.058Z,98770.13
2023-04-02T01:46:58.744Z,98775.94
2023-04-02T01:47:13.491Z,98779.31
2023-04-02T01:47:27.426Z,98783.50
2023-04-02T01:47:40.599Z,98776.34
2023-04-02T01:47:52.729Z,98780.72
2023-04-02T01:48:20.950Z,98782.53
2023-04-02T01:48:33.100Z,98786.50
2023-04-02T01:48:45.085Z,98784.81
2023-04-02T01:49:02.106Z,98778.63
2023-04-02T01:49:18.109Z,98776.97
2023-04-02T01:49:30.469Z,98776.25
2023-04-02T01:49:44.134Z,98786.88
2023-04-02T01:50:26.255Z,98781.97
2023-04-02T01:50:41.766Z,98780.91
2023-04-02T01:50:55.561Z,98785.13
2023-04-02T01:51:08.255Z,98784.28
2023-04-02T01:51:28.492Z,98786.50
2023-04-02T01:51:45.048Z,98781.31
2023-04-02T01:51:57.176Z,98773.66
2023-04-02T01:52:16.096Z,98785.06
2023-04-02T01:52:41.555Z,98783.09
2023-04-02T01:52:59.071Z,98789.22
2023-04-02T01:53:14.869Z,98785.84
2023-04-02T01:53:30.853Z,98782.97
2023-04-02T01:53:42.856Z,98782.16
2023-04-02T01:53:56.574Z,98786.94
2023-04-02T01:54:09.277Z,98779.22
2023-04-02T01:54:22.490Z,98785.25
2023-04-02T01:54:40.612Z,98788.69
2023-04-02T01:54:53.707Z,98782.88
2023-04-02T01:55:07.722Z,98783.66
2023-04-02T01:55:29.483Z,98781.31
2023-04-02T01:55:52.553Z,98786.34
2023-04-02T01:56:04.766Z,98779.34
2023-04-02T01:56:17.524Z,98785.53
2023-04-02T01:56:30.530Z,98785.78
2023-04-02T01:56:44.358Z,98787.34
2023-04-02T01:56:57.385Z,98781.31
2023-04-02T01:57:09.897Z,98787.91
2023-04-02T01:57:22.066Z,98783.66
2023-04-02T01:57:34.389Z,98779.91
2023-04-02T01:57:51.293Z,98782.59
2023-04-02T01:58:03.954Z,98788.47
2023-04-02T01:58:24.091Z,98787.59
2023-04-02T01:58:36.606Z,98787.06
2023-04-02T01:58:49.482Z,98789.63
2023-04-02T01:59:02.732Z,98786.50
2023-04-02T01:59:18.398Z,98788.28
2023-04-02T01:59:33.126Z,98787.28
2023-04-02T01:59:46.172Z,98786.25
2023-04-02T02:00:00.368Z,98787.13
2023-04-02T02:00:15.222Z,98782.88
2023-04-02T02:00:30.233Z,98785.47
2023-04-02T02:00:51.209Z,98781.16
2023-04-02T02:01:03.170Z,98787.91
2023-04-02T02:01:19.790Z,98784.53
2023-04-02T02:01:41.497Z,98790.28
2023-04-02T02:02:05.520Z,98792.00
2023-04-02T02:02:17.716Z,98787.63
2023-04-02T02:02:29.943Z,98787.53
2023-04-02T02:02:44.520Z,98795.38
2023-04-02T02:02:56.830Z,98790.25
2023-04-02T02:03:12.508Z,98787.63
2023-04-02T02:03:24.610Z,98784.16
2023-04-02T02:03:44.752Z,98783.44
2023-04-02T02:03:56.849Z,98789.47
2023-04-02T02:04:13.667Z,98788.47
2023-04-02T02:04:26.028Z,98791.22
2023-04-02T02:04:39.295Z,98791.44
2023-04-02T02:04:51.467Z,98790.50
2023-04-02T02:05:04.310Z,98785.53
2023-04-02T02:05:19.408Z,98787.19
2023-04-02T02:05:32.240Z,98785.31
2023-04-02T02:05:44.816Z,98784.28
2023-04-02T02:05:57.751Z,98787.78
2023-04-02T02:06:15.002Z,98790.28
2023-04-02T02:06:33.211Z,98791.16
2023-04-02T02:06:47.009Z,98790.19
2023-04-02T02:07:01.983Z,98785.97
2023-04-02T02:07:18.255Z,98793.09
2023-04-02T02:07:30.572Z,98785.63
2023-04-02T02:07:43.608Z,98785.63
2023-04-02T02:07:57.239Z,98783.09
2023-04-02T02:08:39.170Z,98785.63
2023-04-02T02:08:54.974Z,98789.00
2023-04-02T02:09:12.344Z,98789.88
2023-04-02T02:09:28.853Z,98789.72
2023-04-02T02:09:41.484Z,98789.63
2023-04-02T02:09:53.939Z,98787.78
2023-04-02T02:10:07.249Z,98786.34
2023-04-02T02:10:27.109Z,98792.13
2023-04-02T02:10:39.668Z,98783.28
2023-04-02T02:10:51.574Z,98785.38
2023-04-02T02:11:04.853Z,98785.47
2023-04-02T02:11:29.066Z,98792.00
2023-04-02T02:11:41.744Z,98791.16
2023-04-02T02:11:53.857Z,98793.63
2023-04-02T02:12:06.666Z,98781.72
2023-04-02T02:12:18.677Z,98795.69
2023-04-02T02:12:31.103Z,98791.00
2023-04-02T02:12:44.975Z,98789.47
2023-04-02T02:12:59.257Z,98788.63
2023-04-02T02:13:15.969Z,98794.72
2023-04-02T02:13:28.105Z,98791.69
2023-04-02T02:13:42.239Z,98793.25
2023-04-02T02:13:58.442Z,98791.16
2023-04-02T02:14:17.664Z,98791.28
2023-04-02T02:14:31.652Z,98793.66
2023-04-02T02:14:49.295Z,98801.28
2023-04-02T02:15:01.475Z,98792.31
2023-04-02T02:15:17.146Z,98797.41
2023-04-02T02:15:33.733Z,98793.94
2023-04-02T02:15:46.455Z,98787.91
2023-04-02T02:16:00.394Z,98799.84
2023-04-02T02:16:17.800Z,98796.53
2023-04-02T02:16:31.872Z,98799.22
2023-04-02T02:16:45.895Z,98793.94
2023-04-02T02:17:02.045Z,98788.06
2023-04-02T02:17:24.088Z,98802.66
2023-04-02T02:17:36.188Z,98798.28
2023-04-02T02:17:49.078Z,98796.34
2023-04-02T02:18:05.126Z,98795.31
2023-04-02T02:18:23.257Z,98797.31
2023-04-02T02:18:35.396Z,98800.88
2023-04-02T02:18:53.626Z,98794.81
2023-04-02T02:19:05.852Z,98800.00
2023-04-02T02:19:27.178Z,98798.94
2023-04-02T02:19:44.390Z,98802.00
2023-04-02T02:20:01.519Z,98795.75
2023-04-02T02:20:14.194Z,98798.94
2023-04-02T02:20:29.021Z,98801.41
2023-04-02T02:20:41.892Z,98797.91
2023-04-02T02:20:57.232Z,98802.19
2023-04-02T02:21:10.634Z,98801.13
2023-04-02T02:21:34.166Z,98803.66
2023-04-02T02:21:51.515Z,98796.97
2023-04-02T02:22:36.222Z,98804.25
2023-04-02T02:22:50.653Z,98806.84
2023-04-02T02:23:04.156Z,98803.38
2023-04-02T02:23:16.505Z,98803.38
2023-04-02T02:23:30.057Z,98804.00
2023-04-02T02:23:42.057Z,98808.28
2023-04-02T02:23:55.288Z,98804.78
2023-04-02T02:24:19.274Z,98806.19
2023-04-02T02:24:35.710Z,98803.53
2023-04-02T02:24:48.549Z,98802.69
2023-04-02T02:25:05.432Z,98806.06
2023-04-02T02:25:22.114Z,98799.03
2023-04-02T02:25:36.790Z,98801.50
2023-04-02T02:25:49.461Z,98805.78
2023-04-02T02:26:02.017Z,98807.47
2023-04-02T02:26:15.222Z,98805.66
2023-04-02T02:26:29.413Z,98803.28
2023-04-02T02:26:42.910Z,98807.59
2023-04-02T02:27:00.342Z,98803.84
2023-04-02T02:27:23.954Z,98805.38
2023-04-02T02:27:41.828Z,98806.09
2023-04-02T02:28:06.304Z,98807.06
2023-04-02T02:28:23.862Z,98813.94
2023-04-02T02:28:42.643Z,98806.09
2023-04-02T02:28:57.527Z,98817.53
2023-04-02T02:29:16.958Z,98808.03
2023-04-02T02:29:35.075Z,98810.69
2023-04-02T02:29:51.888Z,98803.84
2023-04-02T02:30:13.403Z,98803.41
2023-04-02T02:30:28.495Z,98810.44
2023-04-02T02:30:57.514Z,98813.88
2023-04-02T02:31:28.004Z,98809.47
2023-04-02T02:31:42.689Z,98817.06
2023-04-02T02:31:56.352Z,98810.88
2023-04-02T02:32:11.164Z,98810.72
2023-04-02T02:32:31.526Z,98813.31
2023-04-02T02:33:02.624Z,98809.78
2023-04-02T02:33:25.447Z,98812.31
2023-04-02T02:33:43.643Z,98814.84
2023-04-02T02:34:02.458Z,98808.13
2023-04-02T02:34:24.681Z,98818.59
2023-04-02T02:34:42.138Z,98818.75
2023-04-02T02:35:16.663Z,98813.69
2023-04-02T02:35:35.133Z,98815.63
2023-04-02T02:35:53.226Z,98811.97
2023-04-02T02:36:12.095Z,98818.75
2023-04-02T02:36:36.145Z,98817.06
2023-04-02T02:36:54.534Z,98822.13
2023-04-02T02:37:14.739Z,98816.81
2023-04-02T02:37:31.128Z,98816.69
2023-04-02T02:37:48.895Z,98818.34
2023-04-02T02:38:26.621Z,98813.31
2023-04-02T02:38:49.376Z,98813.63
2023-04-02T02:39:16.883Z,98819.72
2023-04-02T02:39:37.250Z,98819.59
2023-04-02T02:39:54.979Z,98825.63
2023-04-02T02:40:13.150Z,98824.13
2023-04-02T02:40:36.518Z,98823.69
2023-04-02T02:40:53.102Z,98827.00
2023-04-02T02:41:16.332Z,98823.63
2023-04-02T02:41:41.343Z,98820.81
2023-04-02T02:42:03.030Z,98830.25
2023-04-02T02:42:31.979Z,98826.00
2023-04-02T02:42:58.365Z,98821.53
2023-04-02T02:43:13.772Z,98822.38
2023-04-02T02:43:26.913Z,98831.03
2023-04-02T02:43:41.749Z,98821.34
2023-04-02T02:43:59.637Z,98830.97
2023-04-02T02:44:19.480Z,98828.22
2023-04-02T02:44:37.119Z,98825.63
2023-04-02T02:44:51.650Z,98824.59
2023-04-02T02:45:07.676Z,98828.91
2023-04-02T02:45:25.138Z,98828.91
2023-04-02T02:45:41.143Z,98821.88
2023-04-02T02:45:55.541Z,98830.28
2023-04-02T02:46:09.919Z,98828.53
2023-04-02T02:46:25.346Z,98821.44
2023-04-02T02:47:02.338Z,98827.47
2023-04-02T02:47:25.204Z,98832.56
2023-04-02T02:47:39.121Z,98829.72
2023-04-02T02:47:55.350Z,98836.63
2023-04-02T02:48:14.988Z,98827.91
2023-04-02T02:48:37.279Z,98828.84
2023-04-02T02:48:52.120Z,98832.25
2023-04-02T02:49:06.087Z,98828.78
2023-04-02T02:49:25.439Z,98830.31
2023-04-02T02:49:42.184Z,98829.31
2023-04-02T02:49:59.138Z,98831.97
2023-04-02T02:50:19.016Z,98828.63
2023-04-02T02:50:32.754Z,98824.13
2023-04-02T02:50:45.650Z,98836.34
2023-04-02T02:50:58.408Z,98834.66
2023-04-02T02:51:20.489Z,98833.75
2023-04-02T02:52:01.041Z,98825.13
2023-04-02T02:52:15.275Z,98832.69
2023-04-02T02:52:36.325Z,98833.53
2023-04-02T02:52:53.707Z,98828.34
2023-04-02T02:53:18.968Z,98826.56
2023-04-02T02:53:31.164Z,98832.13
2023-04-02T02:53:53.485Z,98835.34
2023-04-02T02:54:06.010Z,98832.69
2023-04-02T02:54:19.599Z,98835.28
2023-04-02T02:54:33.351Z,98825.66
2023-04-02T02:54:53.145Z,98822.44
2023-04-02T02:55:12.704Z,98832.13
2023-04-02T02:55:34.532Z,98833.88
2023-04-02T02:55:52.823Z,98829.44
2023-04-02T02:56:05.273Z,98828.69
2023-04-02T02:56:18.997Z,98834.81
2023-04-02T02:56:37.645Z,98833.25
2023-04-02T02:56:55.777Z,98829.72
2023-04-02T02:57:13.200Z,98833.88
2023-04-02T02:57:29.068Z,98831.16
2023-04-02T02:57:47.944Z,98835.50
2023-04-02T02:58:05.044Z,98832.06
2023-04-02T02:58:26.408Z,98835.91
2023-04-02T02:58:38.955Z,98835.09
2023-04-02T02:58:53.295Z,98837.53
2023-04-02T02:59:09.979Z,98824.41
2023-04-02T02:59:23.087Z,98833.09
2023-04-02T02:59:35.939Z,98832.44
2023-04-02T02:59:48.708Z,98840.28
2023-04-02T03:00:02.158Z,98835.09
2023-04-02T03:00:16.116Z,98835.97
2023-04-02T03:00:28.353Z,98832.59
2023-04-02T03:00:40.915Z,98830.94
2023-04-02T03:00:53.896Z,98833.53
2023-04-02T03:01:06.187Z,98837.19
2023-04-02T03:01:18.842Z,98838.72
2023-04-02T03:01:31.922Z,98832.56
2023-04-02T03:01:47.695Z,98835.97
2023-04-02T03:02:02.287Z,98836.03
2023-04-02T03:02:15.493Z,98840.28
2023-04-02T03:02:30.633Z,98832.56
2023-04-02T03:02:43.717Z,98835.97
2023-04-02T03:02:57.556Z,98836.13
2023-04-02T03:03:14.529Z,98839.41
2023-04-02T03:03:30.130Z,98824.69
2023-04-02T03:03:42.486Z,98836.75
2023-04-02T03:03:55.403Z,98840.13
2023-04-02T03:04:07.810Z,98833.97
2023-04-02T03:04:24.093Z,98835.09
2023-04-02T03:04:36.318Z,98836.75
2023-04-02T03:04:52.885Z,98834.03
2023-04-02T03:05:05.978Z,98836.63
2023-04-02T03:05:23.650Z,98835.78
2023-04-02T03:05:36.433Z,98837.41
2023-04-02T03:06:05.270Z,98838.47
2023-04-02T03:06:20.612Z,98839.22
2023-04-02T03:06:32.917Z,98836.63
2023-04-02T03:06:50.109Z,98838.47
2023-04-02T03:07:03.863Z,98840.28
2023-04-02T03:07:16.785Z,98843.78
2023-04-02T03:07:30.872Z,98836.03
2023-04-02T03:07:43.632Z,98848.19
2023-04-02T03:07:58.406Z,98841.19
2023-04-02T03:08:34.669Z,98840.91
2023-04-02T03:08:57.662Z,98841.13
2023-04-02T03:09:21.635Z,98844.06
2023-04-02T03:10:00.287Z,98836.91
2023-04-02T03:10:21.163Z,98848.97
2023-04-02T03:11:19.545Z,98840.41
2023-04-02T03:11:39.807Z,98845.31
2023-04-02T03:12:02.012Z,98836.63
2023-04-02T03:12:39.751Z,98845.47
2023-04-02T03:12:59.008Z,98841.81
2023-04-02T03:13:33.039Z,98841.06
2023-04-02T03:13:49.095Z,98848.19
2023-04-02T03:14:15.517Z,98851.78
2023-04-02T03:14:53.454Z,98847.84
2023-04-02T03:15:49.729Z,98848.97
2023-04-02T03:16:15.361Z,98853.34
2023-04-02T03:16:31.200Z,98845.31
2023-04-02T03:16:52.500Z,98852.34
2023-04-02T03:17:21.352Z,98849.81
2023-04-02T03:17:50.381Z,98853.13
2023-04-02T03:18:04.720Z,98853.88
2023-04-02T03:18:44.768Z,98858.47
2023-04-02T03:19:09.747Z,98853.34
2023-04-02T03:20:01.514Z,98852.34
2023-04-02T03:20:36.206Z,98854.03
2023-04-02T03:20:52.605Z,98855.72
2023-04-02T03:21:48.624Z,98859.38
2023-04-02T03:22:21.216Z,98860.41
2023-04-02T03:22:41.357Z,98856.97
2023-04-02T03:23:14.682Z,98861.88
2023-04-02T03:23:38.929Z,98858.25
2023-04-02T03:24:03.312Z,98860.63
2023-04-02T03:24:52.981Z,98858.88
2023-04-02T03:25:10.824Z,98859.03
2023-04-02T03:25:32.819Z,98863.16
2023-04-02T03:26:06.716Z,98869.31
2023-04-02T03:26:24.391Z,98863.44
2023-04-02T03:26:43.230Z,98867.78
2023-04-02T03:27:07.208Z,98862.97
2023-04-02T03:27:42.693Z,98864.84
2023-04-02T03:28:01.741Z,98865.63
2023-04-02T03:28:19.649Z,98860.44
2023-04-02T03:28:37.778Z,98854.88
2023-04-02T03:29:00.878Z,98865.34
2023-04-02T03:29:32.850Z,98866.53
2023-04-02T03:30:05.491Z,98862.91
2023-04-02T03:30:44.599Z,98861.81
2023-04-02T03:31:02.846Z,98861.88
2023-04-02T03:31:32.412Z,98867.97
2023-04-02T03:32:04.732Z,98870.06
2023-04-02T03:32:28.745Z,98865.41
2023-04-02T03:32:43.580Z,98864.69
2023-04-02T03:33:02.201Z,98869.16
2023-04-02T03:33:17.405Z,98866.53
2023-04-02T03:33:56.800Z,98860.31
2023-04-02T03:34:17.833Z,98863.75
2023-04-02T03:34:38.161Z,98860.56
2023-04-02T03:34:55.238Z,98864.97
2023-04-02T03:35:34.389Z,98866.53
2023-04-02T03:35:57.820Z,98867.84
2023-04-02T03:36:18.984Z,98866.38
2023-04-02T03:36:38.411Z,98867.47
2023-04-02T03:36:57.861Z,98864.81
2023-04-02T03:37:16.236Z,98870.78
2023-04-02T03:37:35.942Z,98871.66
2023-04-02T03:38:00.712Z,98870.84
2023-04-02T03:38:25.739Z,98873.56
2023-04-02T03:38:44.564Z,98878.16
2023-04-02T03:39:13.675Z,98871.47
2023-04-02T03:39:39.302Z,98875.09
2023-04-02T03:39:58.027Z,98874.16
2023-04-02T03:40:17.380Z,98873.31
2023-04-02T03:40:37.933Z,98877.53
2023-04-02T03:41:01.429Z,98872.34
2023-04-02T03:41:25.524Z,98870.53
2023-04-02T03:41:47.792Z,98875.72
2023-04-02T03:42:25.075Z,98870.19
2023-04-02T03:42:51.014Z,98874.41
2023-04-02T03:43:18.351Z,98867.13
2023-04-02T03:43:58.352Z,98874.78
2023-04-02T03:44:22.175Z,98869.47
2023-04-02T03:45:01.462Z,98873.53
2023-04-02T03:45:16.244Z,98880.63
2023-04-02T03:45:33.694Z,98884.13
2023-04-02T03:45:51.702Z,98881.41
2023-04-02T03:46:31.412Z,98876.22
2023-04-02T03:47:00.100Z,98884.69
2023-04-02T03:47:39.911Z,98882.63
2023-04-02T03:48:03.781Z,98878.47
2023-04-02T03:48:20.948Z,98878.25
2023-04-02T03:49:28.194Z,98881.38
2023-04-02T03:49:46.094Z,98878.84
2023-04-02T03:50:21.050Z,98884.28
2023-04-02T03:50:48.883Z,98884.44
2023-04-02T03:51:24.742Z,98879.34
2023-04-02T03:52:02.660Z,98880.13
2023-04-02T03:52:29.029Z,98877.28